createdAt,value
2022-08-16T00:01:44.263Z,100496.10
2022-08-16T00:04:35.016Z,100496.74
2022-08-16T00:07:26.329Z,100495.25
2022-08-16T00:10:21.215Z,100499.88
2022-08-16T00:13:13.115Z,100504.73
2022-08-16T00:17:06.715Z,100505.16
2022-08-16T00:19:22.560Z,100506.24
2022-08-16T00:22:15.531Z,100510.02
2022-08-16T00:25:10.106Z,100511.24
2022-08-16T00:28:01.708Z,100520.81
2022-08-16T00:30:52.182Z,100521.99
2022-08-16T00:33:50.113Z,100523.89
2022-08-16T00:36:40.206Z,100525.39
2022-08-16T00:39:39.940Z,100532.16
2022-08-16T00:42:32.643Z,100543.17
2022-08-16T00:45:35.593Z,100547.35
2022-08-16T00:48:30.298Z,100554.36
2022-08-16T00:51:25.170Z,100554.69
2022-08-16T00:54:23.382Z,100559.14
2022-08-16T00:57:16.224Z,100556.56
2022-08-16T01:00:08.987Z,100556.90
2022-08-16T01:03:11.657Z,100555.13
2022-08-16T01:06:40.650Z,100553.90
2022-08-16T01:09:13.126Z,100555.30
2022-08-16T01:12:08.445Z,100552.66
2022-08-16T01:15:01.313Z,100556.13
2022-08-16T01:17:56.179Z,100560.32
2022-08-16T01:20:53.378Z,100566.27
2022-08-16T01:24:02.488Z,100571.04
2022-08-16T01:26:57.702Z,100574.77
2022-08-16T01:30:00.397Z,100580.94
2022-08-16T01:32:59.599Z,100581.73
2022-08-16T01:35:58.697Z,100581.64
2022-08-16T01:38:57.214Z,100587.79
2022-08-16T01:41:49.913Z,100584.54
2022-08-16T01:44:41.132Z,100585.16
2022-08-16T01:47:35.397Z,100586.00
2022-08-16T01:50:42.605Z,100582.94
2022-08-16T01:53:40.729Z,100579.95
2022-08-16T01:56:41.449Z,100581.69
2022-08-16T01:59:35.390Z,100580.47
2022-08-16T02:02:28.805Z,100584.98
2022-08-16T02:05:18.947Z,100580.77
2022-08-16T02:08:32.969Z,100577.61
2022-08-16T02:11:24.423Z,100575.54
2022-08-16T02:14:18.409Z,100575.09
2022-08-16T02:17:13.346Z,100568.27
2022-08-16T02:20:11.381Z,100570.62
2022-08-16T02:23:05.617Z,100570.75
2022-08-16T02:25:56.851Z,100572.55
2022-08-16T02:28:52.794Z,100563.41
2022-08-16T02:32:03.055Z,100558.95
2022-08-16T02:34:56.456Z,100556.89
2022-08-16T02:37:52.434Z,100560.48
2022-08-16T02:40:47.803Z,100557.77
2022-08-16T02:43:40.244Z,100560.08
2022-08-16T02:46:33.647Z,100558.02
2022-08-16T02:49:32.261Z,100558.63
2022-08-16T02:52:36.492Z,100560.50
2022-08-16T02:55:40.876Z,100559.99
2022-08-16T02:58:32.794Z,100559.23
2022-08-16T03:01:33.741Z,100553.06
2022-08-16T03:04:50.324Z,100553.16
2022-08-16T03:07:50.491Z,100545.77
2022-08-16T03:10:43.009Z,100538.86
2022-08-16T03:13:40.294Z,100542.73
2022-08-16T03:16:38.222Z,100543.48
2022-08-16T03:19:47.175Z,100544.86
2022-08-16T03:22:45.377Z,100539.98
2022-08-16T03:25:43.185Z,100537.10
2022-08-16T03:28:40.430Z,100534.89
2022-08-16T03:31:34.578Z,100533.15
2022-08-16T03:34:33.329Z,100531.13
2022-08-16T03:37:24.858Z,100530.51
2022-08-16T03:40:23.296Z,100526.01
2022-08-16T03:43:24.550Z,100531.00
2022-08-16T03:46:47.826Z,100533.19
2022-08-16T03:49:44.433Z,100536.70
2022-08-16T03:52:35.643Z,100533.06
2022-08-16T03:55:31.355Z,100533.07
2022-08-16T03:58:37.296Z,100531.72
2022-08-16T04:01:29.950Z,100529.41
2022-08-16T04:04:25.067Z,100529.98
2022-08-16T04:07:25.780Z,100531.55
2022-08-16T04:10:36.872Z,100531.45
2022-08-16T04:14:01.222Z,100536.48
2022-08-16T04:16:39.718Z,100539.26
2022-08-16T04:19:51.704Z,100545.83
2022-08-16T04:22:48.833Z,100548.67
2022-08-16T04:25:40.988Z,100554.85
2022-08-16T04:28:55.900Z,100553.14
2022-08-16T04:31:43.696Z,100551.71
2022-08-16T04:34:36.941Z,100552.16
2022-08-16T04:37:29.574Z,100556.35
2022-08-16T04:40:29.875Z,100560.46
2022-08-16T04:43:21.081Z,100563.64
2022-08-16T04:47:00.328Z,100566.62
2022-08-16T04:49:38.528Z,100572.79
2022-08-16T04:52:37.903Z,100583.44
2022-08-16T04:55:37.819Z,100576.89
2022-08-16T04:58:38.335Z,100575.08
2022-08-16T05:01:55.971Z,100582.73
2022-08-16T05:04:46.928Z,100588.68
2022-08-16T05:07:38.030Z,100595.39
2022-08-16T05:10:47.949Z,100597.16
2022-08-16T05:13:42.599Z,100597.52
2022-08-16T05:16:35.899Z,100595.29
2022-08-16T05:19:36.096Z,100598.65
2022-08-16T05:22:38.576Z,100603.15
2022-08-16T05:25:40.954Z,100616.02
2022-08-16T05:28:40.036Z,100623.25
2022-08-16T05:31:32.427Z,100623.13
2022-08-16T05:34:23.485Z,100619.83
2022-08-16T05:37:16.141Z,100617.70
2022-08-16T05:40:10.876Z,100621.02
2022-08-16T05:43:04.340Z,100626.41
2022-08-16T05:45:55.867Z,100625.66
2022-08-16T05:48:55.042Z,100626.52
2022-08-16T05:51:51.405Z,100635.80
2022-08-16T05:54:46.636Z,100641.83
2022-08-16T05:57:37.807Z,100635.83
2022-08-16T06:00:33.215Z,100639.49
2022-08-16T06:03:24.162Z,100635.05
2022-08-16T06:06:28.067Z,100628.65
2022-08-16T06:09:20.561Z,100635.10
2022-08-16T06:12:12.723Z,100634.30
2022-08-16T06:15:20.691Z,100633.81
2022-08-16T06:18:10.747Z,100630.02
2022-08-16T06:21:02.857Z,100630.77
2022-08-16T06:23:54.316Z,100630.45
2022-08-16T06:26:57.715Z,100629.70
2022-08-16T06:29:50.719Z,100632.90
2022-08-16T06:32:43.771Z,100638.59
2022-08-16T06:35:41.495Z,100630.23
2022-08-16T06:38:34.493Z,100627.48
2022-08-16T06:41:39.844Z,100629.21
2022-08-16T06:44:39.239Z,100632.41
2022-08-16T06:47:53.790Z,100638.61
2022-08-16T06:50:44.957Z,100640.20
2022-08-16T06:53:38.522Z,100639.66
2022-08-16T06:56:29.422Z,100639.17
2022-08-16T06:59:29.362Z,100638.08
2022-08-16T07:02:33.111Z,100642.13
2022-08-16T07:05:27.044Z,100644.86
2022-08-16T07:08:35.175Z,100649.75
2022-08-16T07:11:45.365Z,100649.53
2022-08-16T07:14:39.566Z,100646.54
2022-08-16T07:17:32.878Z,100645.48
2022-08-16T07:20:35.386Z,100641.67
2022-08-16T07:23:38.847Z,100643.85
2022-08-16T07:26:30.930Z,100649.70
2022-08-16T07:29:21.688Z,100650.79
2022-08-16T07:32:12.420Z,100657.94
2022-08-16T07:35:06.329Z,100660.42
2022-08-16T07:37:59.578Z,100659.39
2022-08-16T07:41:11.021Z,100658.23
2022-08-16T07:44:16.133Z,100659.27
2022-08-16T07:47:07.966Z,100661.15
2022-08-16T07:50:07.693Z,100663.68
2022-08-16T07:53:00.218Z,100668.92
2022-08-16T07:55:52.977Z,100673.43
2022-08-16T07:58:49.027Z,100679.17
2022-08-16T08:01:45.846Z,100674.54
2022-08-16T08:04:36.711Z,100676.24
2022-08-16T08:07:28.647Z,100677.77
2022-08-16T08:10:29.589Z,100678.66
2022-08-16T08:13:41.767Z,100681.36
2022-08-16T08:16:32.318Z,100675.04
2022-08-16T08:19:24.630Z,100678.73
2022-08-16T08:22:19.456Z,100676.85
2022-08-16T08:25:16.285Z,100673.95
2022-08-16T08:28:10.944Z,100670.98
2022-08-16T08:31:04.355Z,100672.52
2022-08-16T08:34:00.607Z,100674.23
2022-08-16T08:36:56.529Z,100675.14
2022-08-16T08:40:08.685Z,100680.70
2022-08-16T08:43:11.863Z,100685.64
2022-08-16T08:46:17.786Z,100689.05
2022-08-16T08:49:11.254Z,100692.30
2022-08-16T08:52:08.015Z,100696.90
2022-08-16T08:55:05.035Z,100694.46
2022-08-16T08:58:00.732Z,100694.40
2022-08-16T09:01:05.753Z,100703.55
2022-08-16T09:04:03.703Z,100704.42
2022-08-16T09:06:55.296Z,100712.54
2022-08-16T09:09:47.802Z,100714.55
2022-08-16T09:12:39.039Z,100719.39
2022-08-16T09:15:33.588Z,100724.86
2022-08-16T09:18:27.180Z,100721.87
2022-08-16T09:21:31.363Z,100721.15
2022-08-16T09:24:46.727Z,100723.65
2022-08-16T09:27:56.498Z,100729.96
2022-08-16T09:30:44.169Z,100733.36
2022-08-16T09:33:37.337Z,100739.31
2022-08-16T09:36:31.807Z,100740.23
2022-08-16T09:39:23.730Z,100740.62
2022-08-16T09:42:15.731Z,100739.55
2022-08-16T09:45:16.572Z,100738.80
2022-08-16T09:48:09.249Z,100743.64
2022-08-16T09:50:59.758Z,100751.88
2022-08-16T09:53:53.929Z,100758.68
2022-08-16T09:56:53.455Z,100761.34
2022-08-16T09:59:44.658Z,100760.39
2022-08-16T10:02:44.113Z,100755.04
2022-08-16T10:05:37.372Z,100755.75
2022-08-16T10:08:27.751Z,100759.06
2022-08-16T10:11:49.840Z,100759.42
2022-08-16T10:14:45.881Z,100753.55
2022-08-16T10:17:36.416Z,100751.27
2022-08-16T10:20:27.922Z,100759.80
2022-08-16T10:23:18.395Z,100758.30
2022-08-16T10:27:20.521Z,100768.56
2022-08-16T10:29:21.077Z,100766.21
2022-08-16T10:32:11.279Z,100763.61
2022-08-16T10:35:03.327Z,100767.01
2022-08-16T10:37:53.826Z,100767.30
2022-08-16T10:40:45.679Z,100767.48
2022-08-16T10:43:36.694Z,100766.50
2022-08-16T10:46:39.246Z,100768.60
2022-08-16T10:49:32.926Z,100764.69
2022-08-16T10:52:24.754Z,100763.32
2022-08-16T10:58:34.684Z,100757.99
2022-08-16T11:01:39.808Z,100758.73
2022-08-16T11:07:52.059Z,100767.73
2022-08-16T11:11:06.484Z,100769.24
2022-08-16T11:14:06.169Z,100769.77
2022-08-16T11:17:10.497Z,100765.41
2022-08-16T11:20:41.412Z,100762.08
2022-08-16T11:23:12.105Z,100762.50
2022-08-16T11:26:10.408Z,100771.98
2022-08-16T11:29:14.246Z,100768.16
2022-08-16T11:32:06.106Z,100768.48
2022-08-16T11:35:13.446Z,100769.52
2022-08-16T11:38:47.285Z,100774.17
2022-08-16T11:41:17.682Z,100772.38
2022-08-16T11:44:09.449Z,100769.27
2022-08-16T11:47:04.142Z,100767.81
2022-08-16T11:49:54.872Z,100773.60
2022-08-16T11:52:46.734Z,100778.01
2022-08-16T11:55:40.358Z,100775.85
2022-08-16T11:58:35.341Z,100781.41
2022-08-16T12:01:29.642Z,100784.62
2022-08-16T12:04:35.171Z,100790.13
2022-08-16T12:07:25.678Z,100790.92
2022-08-16T12:10:18.404Z,100791.88
2022-08-16T12:13:13.988Z,100794.63
2022-08-16T12:16:04.514Z,100797.70
2022-08-16T12:18:54.541Z,100801.52
2022-08-16T12:21:58.055Z,100801.73
2022-08-16T12:24:51.240Z,100804.05
2022-08-16T12:27:49.666Z,100809.27
2022-08-16T12:30:42.857Z,100814.23
2022-08-16T12:33:42.736Z,100808.36
2022-08-16T12:36:35.266Z,100810.12
2022-08-16T12:39:29.155Z,100808.23
2022-08-16T12:42:20.842Z,100811.58
2022-08-16T12:45:15.449Z,100814.37
2022-08-16T12:48:36.049Z,100811.95
2022-08-16T12:51:32.883Z,100816.40
2022-08-16T12:54:39.787Z,100816.97
2022-08-16T12:57:36.540Z,100813.50
2022-08-16T13:00:33.622Z,100810.92
2022-08-16T13:03:23.943Z,100805.94
2022-08-16T13:06:20.203Z,100804.23
2022-08-16T13:09:26.732Z,100814.39
2022-08-16T13:12:25.063Z,100816.23
2022-08-16T13:15:18.395Z,100811.67
2022-08-16T13:18:23.861Z,100798.73
2022-08-16T13:21:17.925Z,100796.27
2022-08-16T13:24:08.783Z,100800.38
2022-08-16T13:26:59.544Z,100801.87
2022-08-16T13:29:57.576Z,100800.61
2022-08-16T13:32:52.102Z,100797.81
2022-08-16T13:35:44.924Z,100796.08
2022-08-16T13:38:37.880Z,100798.05
2022-08-16T13:41:30.341Z,100798.58
2022-08-16T13:44:21.565Z,100797.73
2022-08-16T13:47:11.528Z,100795.11
2022-08-16T13:50:03.508Z,100798.60
2022-08-16T13:52:53.591Z,100789.83
2022-08-16T13:55:47.522Z,100783.98
2022-08-16T13:58:54.845Z,100785.14
2022-08-16T14:01:55.550Z,100791.15
2022-08-16T14:04:47.426Z,100792.90
2022-08-16T14:07:55.440Z,100786.09
2022-08-16T14:10:45.838Z,100785.71
2022-08-16T14:13:36.066Z,100784.46
2022-08-16T14:16:33.686Z,100788.27
2022-08-16T14:19:26.405Z,100779.97
2022-08-16T14:22:31.154Z,100777.88
2022-08-16T14:25:28.272Z,100773.41
2022-08-16T14:28:19.036Z,100774.19
2022-08-16T14:31:13.840Z,100774.05
2022-08-16T14:34:06.494Z,100777.54
2022-08-16T14:37:01.182Z,100775.35
2022-08-16T14:39:52.443Z,100774.10
2022-08-16T14:42:44.189Z,100774.15
2022-08-16T14:45:36.913Z,100772.52
2022-08-16T14:48:26.863Z,100769.95
2022-08-16T14:51:18.983Z,100778.69
2022-08-16T14:54:15.180Z,100780.14
2022-08-16T14:57:06.023Z,100774.63
2022-08-16T15:00:00.751Z,100775.19
2022-08-16T15:02:58.091Z,100775.29
2022-08-16T15:05:48.276Z,100766.44
2022-08-16T15:08:40.338Z,100763.78
2022-08-16T15:11:31.036Z,100760.17
2022-08-16T15:14:23.130Z,100758.91
2022-08-16T15:17:15.064Z,100758.16
2022-08-16T15:20:11.089Z,100754.58
2022-08-16T15:23:06.014Z,100755.02
2022-08-16T15:26:03.060Z,100755.50
2022-08-16T15:28:54.238Z,100758.31
2022-08-16T15:31:48.366Z,100763.76
2022-08-16T15:34:44.719Z,100765.95
2022-08-16T15:37:42.624Z,100766.67
2022-08-16T15:40:35.315Z,100758.27
2022-08-16T15:43:27.153Z,100752.73
2022-08-16T15:46:35.705Z,100748.80
2022-08-16T15:49:38.912Z,100743.84
2022-08-16T15:52:38.993Z,100745.06
2022-08-16T15:55:35.141Z,100748.38
2022-08-16T15:58:34.866Z,100744.07
2022-08-16T16:01:26.112Z,100746.81
2022-08-16T16:04:22.860Z,100747.02
2022-08-16T16:07:13.325Z,100748.04
2022-08-16T16:10:07.818Z,100745.27
2022-08-16T16:12:58.624Z,100740.98
2022-08-16T16:15:51.992Z,100732.77
2022-08-16T16:18:48.715Z,100734.77
2022-08-16T16:21:39.369Z,100737.39
2022-08-16T16:24:30.777Z,100741.27
2022-08-16T16:27:22.769Z,100737.30
2022-08-16T16:30:33.037Z,100735.51
2022-08-16T16:33:28.774Z,100737.38
2022-08-16T16:36:24.346Z,100741.98
2022-08-16T16:39:18.149Z,100744.42
2022-08-16T16:42:08.704Z,100740.58
2022-08-16T16:45:19.191Z,100745.96
2022-08-16T16:48:12.024Z,100748.33
2022-08-16T16:51:09.154Z,100750.33
2022-08-16T16:54:03.775Z,100751.61
2022-08-16T16:56:54.423Z,100752.59
2022-08-16T16:59:44.502Z,100752.61
2022-08-16T17:02:41.768Z,100753.64
2022-08-16T17:05:40.694Z,100750.48
2022-08-16T17:08:30.553Z,100751.68
2022-08-16T17:11:20.467Z,100749.79
2022-08-16T17:14:32.120Z,100746.77
2022-08-16T17:17:21.743Z,100737.55
2022-08-16T17:20:14.029Z,100736.64
2022-08-16T17:23:05.088Z,100742.82
2022-08-16T17:25:55.493Z,100737.46
2022-08-16T17:28:59.934Z,100735.23
2022-08-16T17:31:53.019Z,100732.39
2022-08-16T17:34:45.492Z,100731.47
2022-08-16T17:37:48.756Z,100727.70
2022-08-16T17:40:58.123Z,100735.11
2022-08-16T17:43:49.652Z,100744.02
2022-08-16T17:46:50.683Z,100750.06
2022-08-16T17:49:41.854Z,100750.83
2022-08-16T17:52:32.212Z,100753.42
2022-08-16T17:55:27.682Z,100753.05
2022-08-16T17:58:22.657Z,100755.95
2022-08-16T18:01:14.393Z,100751.04
2022-08-16T18:04:08.275Z,100751.92
2022-08-16T18:07:00.169Z,100756.34
2022-08-16T18:09:52.304Z,100758.62
2022-08-16T18:12:50.733Z,100761.86
2022-08-16T18:15:46.302Z,100753.02
2022-08-16T18:18:36.255Z,100754.23
2022-08-16T18:21:43.571Z,100757.77
2022-08-16T18:24:35.098Z,100762.77
2022-08-16T18:27:27.254Z,100764.36
2022-08-16T18:30:17.735Z,100763.75
2022-08-16T18:33:07.956Z,100764.32
2022-08-16T18:35:58.465Z,100763.59
2022-08-16T18:38:48.189Z,100761.89
2022-08-16T18:41:38.563Z,100764.66
2022-08-16T18:44:33.321Z,100764.57
2022-08-16T18:47:24.647Z,100759.00
2022-08-16T18:50:14.348Z,100755.02
2022-08-16T18:53:06.152Z,100760.21
2022-08-16T18:55:59.000Z,100756.11
2022-08-16T18:58:49.012Z,100757.27
2022-08-16T19:01:39.215Z,100752.92
2022-08-16T19:04:56.152Z,100754.45
2022-08-16T19:07:41.993Z,100759.17
2022-08-16T19:10:33.039Z,100765.39
2022-08-16T19:13:25.524Z,100769.06
2022-08-16T19:16:16.486Z,100772.09
2022-08-16T19:19:11.789Z,100767.75
2022-08-16T19:22:01.482Z,100773.05
2022-08-16T19:24:51.102Z,100776.67
2022-08-16T19:27:42.706Z,100776.81
2022-08-16T19:30:32.836Z,100788.38
2022-08-16T19:33:23.121Z,100791.94
2022-08-16T19:36:31.038Z,100795.11
2022-08-16T19:39:22.362Z,100805.61
2022-08-16T19:42:17.922Z,100805.81
2022-08-16T19:45:09.587Z,100800.46
2022-08-16T19:48:03.698Z,100801.54
2022-08-16T19:50:53.830Z,100805.92
2022-08-16T19:53:44.203Z,100816.07
2022-08-16T19:56:34.148Z,100819.41
2022-08-16T19:59:40.479Z,100822.66
2022-08-16T20:02:36.430Z,100818.16
2022-08-16T20:05:29.979Z,100816.79
2022-08-16T20:08:22.277Z,100812.20
2022-08-16T20:11:12.381Z,100822.68
2022-08-16T20:14:02.343Z,100824.55
2022-08-16T20:16:52.714Z,100826.10
2022-08-16T20:19:44.070Z,100826.89
2022-08-16T20:22:52.977Z,100830.66
2022-08-16T20:25:49.631Z,100833.64
2022-08-16T20:28:52.605Z,100835.05
2022-08-16T20:31:44.543Z,100834.88
2022-08-16T20:34:35.086Z,100839.79
2022-08-16T20:37:25.353Z,100841.20
2022-08-16T20:40:34.419Z,100840.02
2022-08-16T20:43:25.847Z,100832.55
2022-08-16T20:46:16.872Z,100829.90
2022-08-16T20:49:08.965Z,100829.05
2022-08-16T20:52:00.498Z,100840.15
2022-08-16T20:54:50.358Z,100849.14
2022-08-16T20:57:40.797Z,100843.45
2022-08-16T21:00:32.305Z,100841.52
2022-08-16T21:03:22.671Z,100841.15
2022-08-16T21:06:12.789Z,100847.29
2022-08-16T21:09:04.923Z,100853.27
2022-08-16T21:11:56.054Z,100857.29
2022-08-16T21:14:48.365Z,100851.95
2022-08-16T21:17:39.137Z,100842.52
2022-08-16T21:20:31.145Z,100839.84
2022-08-16T21:23:21.273Z,100831.23
2022-08-16T21:26:11.882Z,100833.77
2022-08-16T21:29:02.693Z,100844.15
2022-08-16T21:31:57.099Z,100846.76
2022-08-16T21:34:50.032Z,100838.67
2022-08-16T21:37:40.470Z,100841.88
2022-08-16T21:40:32.478Z,100843.92
2022-08-16T21:43:24.541Z,100852.05
2022-08-16T21:46:15.032Z,100856.35
2022-08-16T21:49:06.046Z,100850.06
2022-08-16T21:51:57.109Z,100855.35
2022-08-16T21:54:47.114Z,100858.31
2022-08-16T21:57:37.383Z,100857.77
2022-08-16T22:00:28.326Z,100857.97
2022-08-16T22:03:19.578Z,100862.25
2022-08-16T22:06:13.041Z,100864.94
2022-08-16T22:09:05.067Z,100867.60
2022-08-16T22:11:55.962Z,100872.07
2022-08-16T22:14:46.140Z,100866.51
2022-08-16T22:17:35.797Z,100870.84
2022-08-16T22:20:29.416Z,100874.21
2022-08-16T22:23:23.023Z,100876.48
2022-08-16T22:26:14.807Z,100876.11
2022-08-16T22:29:06.964Z,100878.23
2022-08-16T22:31:56.969Z,100878.07
2022-08-16T22:34:50.121Z,100878.73
2022-08-16T22:37:41.907Z,100877.05
2022-08-16T22:40:53.445Z,100874.08
2022-08-16T22:43:46.046Z,100870.78
2022-08-16T22:46:37.875Z,100865.23
2022-08-16T22:49:29.047Z,100872.70
2022-08-16T22:52:48.896Z,100872.88
2022-08-16T22:55:30.093Z,100875.09
2022-08-16T22:58:20.535Z,100875.21
2022-08-16T23:01:27.299Z,100876.77
2022-08-16T23:04:18.092Z,100877.82
2022-08-16T23:07:08.619Z,100876.30
2022-08-16T23:10:01.563Z,100874.30
2022-08-16T23:12:53.509Z,100874.44
2022-08-16T23:15:46.720Z,100876.52
2022-08-16T23:18:42.346Z,100879.66
2022-08-16T23:21:33.096Z,100873.77
2022-08-16T23:24:27.645Z,100868.70
2022-08-16T23:27:17.682Z,100869.66
2022-08-16T23:30:09.205Z,100867.84
2022-08-16T23:33:01.234Z,100869.09
2022-08-16T23:35:53.491Z,100869.81
2022-08-16T23:38:44.407Z,100872.19
2022-08-16T23:41:35.352Z,100874.52
2022-08-16T23:44:42.347Z,100867.59
2022-08-16T23:47:36.088Z,100865.65
2022-08-16T23:50:28.222Z,100860.25
2022-08-16T23:53:20.918Z,100853.86
2022-08-16T23:56:15.535Z,100856.99
2022-08-16T23:59:05.852Z,100853.08
